Time;durP1;ratioP1;P1;durP2;ratioP2;P2;SDS_P1;SDS_P2;PMS_P1;PMS_P2;Temp;Humidity;BMP_temperature;BMP_pressure;BME280_temperature;BME280_humidity;BME280_pressure;Samples;Min_cycle;Max_cycle;Signal;HPM_P1;HPM_P2
2022/12/18 00:01:05;;;;;;;6.75;5.78;;;;;;;;;;5013621;28;20050;-92
2022/12/18 00:03:32;;;;;;;3.15;2.95;;;;;;;;;;5013552;28;20042;-92
2022/12/18 00:05:58;;;;;;;4.28;3.28;;;;;;;;;;5013462;28;20050;-92
2022/12/18 00:08:25;;;;;;;3.85;3.53;;;;;;;;;;5013462;28;20450;-92
2022/12/18 00:10:51;;;;;;;5.90;3.83;;;;;;;;;;5013390;28;20049;-92
2022/12/18 00:13:19;;;;;;;3.67;3.45;;;;;;;;;;5013094;28;20389;-92
2022/12/18 00:15:46;;;;;;;8.02;4.80;;;;;;;;;;5013047;28;20488;-92
2022/12/18 00:18:12;;;;;;;3.67;3.38;;;;;;;;;;5013158;28;20096;-92
2022/12/18 00:20:40;;;;;;;4.25;4.05;;;;;;;;;;5013375;28;20050;-92
2022/12/18 00:23:07;;;;;;;4.45;3.10;;;;;;;;;;5016479;28;20450;-94
2022/12/18 00:25:34;;;;;;;3.22;3.03;;;;;;;;;;5017575;28;20054;-91
2022/12/18 00:28:00;;;;;;;3.63;3.35;;;;;;;;;;5016874;28;20140;-90
2022/12/18 00:30:28;;;;;;;3.85;3.55;;;;;;;;;;5017125;28;20129;-90
2022/12/18 00:32:55;;;;;;;3.22;2.67;;;;;;;;;;5016707;28;20050;-90
2022/12/18 00:35:22;;;;;;;4.68;4.25;;;;;;;;;;5017046;28;20046;-90
2022/12/18 00:37:48;;;;;;;5.03;4.07;;;;;;;;;;5016919;28;20108;-91
2022/12/18 00:40:15;;;;;;;4.28;4.03;;;;;;;;;;5016945;28;20050;-91
2022/12/18 00:42:55;;;;;;;4.20;3.33;;;;;;;;;;5016675;28;20045;-91
2022/12/18 00:45:26;;;;;;;3.45;3.17;;;;;;;;;;5016676;28;20050;-91
2022/12/18 00:47:54;;;;;;;3.67;3.08;;;;;;;;;;5016882;28;20121;-91
2022/12/18 00:50:21;;;;;;;5.22;4.78;;;;;;;;;;5016698;28;20120;-91
2022/12/18 00:52:47;;;;;;;4.72;4.18;;;;;;;;;;5016345;28;20573;-91
2022/12/18 00:55:14;;;;;;;2.95;2.75;;;;;;;;;;5016612;28;20104;-91
2022/12/18 00:57:41;;;;;;;5.07;4.60;;;;;;;;;;5016198;28;20042;-92
2022/12/18 01:00:09;;;;;;;6.07;4.78;;;;;;;;;;5033292;28;20045;-91
2022/12/18 01:02:35;;;;;;;5.13;4.80;;;;;;;;;;5036509;28;20084;-91
2022/12/18 01:05:03;;;;;;;5.15;4.35;;;;;;;;;;5036260;28;20049;-91
2022/12/18 01:07:30;;;;;;;4.68;4.32;;;;;;;;;;5035846;28;20096;-91
2022/12/18 01:09:56;;;;;;;4.70;4.30;;;;;;;;;;5036210;28;20053;-91
2022/12/18 01:12:23;;;;;;;6.90;5.47;;;;;;;;;;5035796;28;20042;-91
2022/12/18 01:14:49;;;;;;;4.90;4.60;;;;;;;;;;5036097;28;20076;-91
2022/12/18 01:17:16;;;;;;;5.40;4.95;;;;;;;;;;5035661;28;20042;-92
2022/12/18 01:19:42;;;;;;;6.05;5.68;;;;;;;;;;5035994;28;20145;-92
2022/12/18 01:22:10;;;;;;;3.88;3.67;;;;;;;;;;5035828;28;20053;-90
2022/12/18 01:24:36;;;;;;;5.22;4.93;;;;;;;;;;5035479;28;20045;-91
2022/12/18 01:27:03;;;;;;;6.35;5.85;;;;;;;;;;5035975;28;20057;-91
2022/12/18 01:29:30;;;;;;;3.95;3.63;;;;;;;;;;5035391;28;20046;-91
2022/12/18 01:31:56;;;;;;;4.65;4.22;;;;;;;;;;5035346;28;20789;-90
2022/12/18 01:34:23;;;;;;;5.28;5.00;;;;;;;;;;5035117;28;20807;-90
2022/12/18 01:36:51;;;;;;;3.17;2.90;;;;;;;;;;5035190;28;20053;-89
2022/12/18 01:39:19;;;;;;;5.75;5.28;;;;;;;;;;5035440;28;20081;-90
2022/12/18 01:42:05;;;;;;;6.97;6.38;;;;;;;;;;5035462;28;20050;-90
2022/12/18 01:44:54;;;;;;;6.38;5.97;;;;;;;;;;5035443;28;20136;-90
2022/12/18 01:47:21;;;;;;;5.95;4.18;;;;;;;;;;5035161;28;20053;-91
2022/12/18 01:49:47;;;;;;;5.65;5.13;;;;;;;;;;5035148;28;20054;-91
2022/12/18 01:52:14;;;;;;;2.92;2.80;;;;;;;;;;5035614;28;20107;-91
2022/12/18 01:54:42;;;;;;;4.70;3.55;;;;;;;;;;5035533;28;20449;-91
2022/12/18 01:57:08;;;;;;;4.57;3.90;;;;;;;;;;5035321;28;20049;-91
2022/12/18 01:59:36;;;;;;;5.47;5.15;;;;;;;;;;5035247;28;20057;-92
2022/12/18 02:02:03;;;;;;;5.13;4.82;;;;;;;;;;5035073;28;20053;-92
2022/12/18 02:04:29;;;;;;;3.15;2.97;;;;;;;;;;5035102;28;20053;-91
2022/12/18 02:07:00;;;;;;;5.10;4.63;;;;;;;;;;5035028;28;20045;-91
2022/12/18 02:09:29;;;;;;;6.57;6.03;;;;;;;;;;5034825;28;20057;-91
2022/12/18 02:12:00;;;;;;;5.00;4.60;;;;;;;;;;5034694;28;20404;-93
2022/12/18 02:14:29;;;;;;;6.32;4.65;;;;;;;;;;5034880;28;20441;-92
2022/12/18 02:16:58;;;;;;;5.35;5.05;;;;;;;;;;5034589;28;20045;-92
2022/12/18 02:19:40;;;;;;;4.13;3.83;;;;;;;;;;5034919;28;20049;-93
2022/12/18 02:22:14;;;;;;;4.80;4.57;;;;;;;;;;5034666;28;20099;-92
2022/12/18 02:24:46;;;;;;;4.20;3.85;;;;;;;;;;5034750;28;20395;-91
2022/12/18 02:27:14;;;;;;;4.82;4.38;;;;;;;;;;5034685;28;20084;-90
2022/12/18 02:29:43;;;;;;;4.30;4.05;;;;;;;;;;5034579;28;20049;-90
2022/12/18 02:32:12;;;;;;;5.07;4.70;;;;;;;;;;5034516;28;20049;-90
2022/12/18 02:34:39;;;;;;;5.22;4.82;;;;;;;;;;5034244;28;20053;-90
2022/12/18 02:37:13;;;;;;;4.93;4.60;;;;;;;;;;5034163;28;20111;-91
2022/12/18 02:39:41;;;;;;;4.22;3.95;;;;;;;;;;5034434;28;20111;-92
2022/12/18 02:42:08;;;;;;;4.18;3.85;;;;;;;;;;5034044;28;20053;-92
2022/12/18 02:44:42;;;;;;;6.45;6.03;;;;;;;;;;5033591;28;20049;-92
2022/12/18 02:47:10;;;;;;;4.80;4.50;;;;;;;;;;5033822;28;20061;-92
2022/12/18 02:49:41;;;;;;;6.60;6.13;;;;;;;;;;5034245;28;20049;-92
2022/12/18 02:52:13;;;;;;;7.93;3.95;;;;;;;;;;5034122;28;20099;-92
2022/12/18 02:54:46;;;;;;;5.25;4.85;;;;;;;;;;5034097;28;20107;-92
2022/12/18 02:57:16;;;;;;;3.20;3.00;;;;;;;;;;5034221;28;20057;-92
2022/12/18 02:59:48;;;;;;;3.83;3.53;;;;;;;;;;5034015;28;20049;-91
2022/12/18 03:02:18;;;;;;;4.25;4.03;;;;;;;;;;5034020;28;20463;-91
2022/12/18 03:04:48;;;;;;;3.05;2.85;;;;;;;;;;5033631;28;20045;-90
2022/12/18 03:07:17;;;;;;;5.38;3.83;;;;;;;;;;5033390;28;20136;-90
2022/12/18 03:09:47;;;;;;;4.20;3.78;;;;;;;;;;5033941;28;20462;-90
2022/12/18 03:12:23;;;;;;;4.45;4.05;;;;;;;;;;5033716;28;20503;-92
2022/12/18 03:14:53;;;;;;;3.78;3.58;;;;;;;;;;5033324;28;20049;-92
2022/12/18 03:17:21;;;;;;;4.55;3.80;;;;;;;;;;5033141;28;20111;-92
2022/12/18 03:19:48;;;;;;;3.17;3.00;;;;;;;;;;5033572;28;20053;-93
2022/12/18 03:22:16;;;;;;;4.40;4.10;;;;;;;;;;5033282;28;20099;-93
2022/12/18 03:24:43;;;;;;;2.97;2.78;;;;;;;;;;5033736;28;20454;-93
2022/12/18 03:27:11;;;;;;;2.30;2.17;;;;;;;;;;5033834;28;20466;-92
2022/12/18 03:29:39;;;;;;;3.75;3.55;;;;;;;;;;5034181;28;20556;-93
2022/12/18 03:32:09;;;;;;;4.05;3.58;;;;;;;;;;5039527;28;20046;-92
2022/12/18 03:34:38;;;;;;;4.75;4.43;;;;;;;;;;5039000;28;20046;-92
2022/12/18 03:37:05;;;;;;;3.22;2.92;;;;;;;;;;5051835;28;20088;-93
2022/12/18 03:39:32;;;;;;;3.33;3.20;;;;;;;;;;5033684;28;20041;-92
2022/12/18 03:42:02;;;;;;;2.08;1.98;;;;;;;;;;5033406;28;20123;-92
2022/12/18 03:44:31;;;;;;;2.22;2.13;;;;;;;;;;5033651;28;20050;-93
2022/12/18 03:47:03;;;;;;;1.95;1.85;;;;;;;;;;5033527;28;20054;-92
2022/12/18 03:49:36;;;;;;;3.45;3.25;;;;;;;;;;5033325;28;20049;-92
2022/12/18 03:52:03;;;;;;;3.60;3.30;;;;;;;;;;5033021;28;20104;-92
2022/12/18 03:54:31;;;;;;;3.22;3.10;;;;;;;;;;5032796;28;20041;-91
2022/12/18 03:57:00;;;;;;;2.17;2.08;;;;;;;;;;5034914;28;20441;-91
2022/12/18 03:59:27;;;;;;;3.80;3.60;;;;;;;;;;5037367;28;20053;-91
2022/12/18 04:01:54;;;;;;;5.07;4.35;;;;;;;;;;5037258;28;20049;-92
2022/12/18 04:04:22;;;;;;;3.00;2.25;;;;;;;;;;5036955;28;20483;-91
2022/12/18 04:06:50;;;;;;;3.33;3.15;;;;;;;;;;5037221;28;20057;-92
2022/12/18 04:09:17;;;;;;;2.45;2.35;;;;;;;;;;5037137;28;20100;-92
2022/12/18 04:11:44;;;;;;;3.55;3.28;;;;;;;;;;5036922;28;20049;-91
2022/12/18 04:14:11;;;;;;;3.97;3.67;;;;;;;;;;5036993;28;20134;-91
2022/12/18 04:16:37;;;;;;;5.28;5.05;;;;;;;;;;5036852;28;20107;-90
2022/12/18 04:19:04;;;;;;;3.85;3.65;;;;;;;;;;5036892;28;20107;-92
2022/12/18 04:21:30;;;;;;;2.83;2.67;;;;;;;;;;5036927;28;20053;-93
2022/12/18 04:23:58;;;;;;;3.95;3.33;;;;;;;;;;5036814;28;20099;-93
2022/12/18 04:26:25;;;;;;;3.42;3.13;;;;;;;;;;5036816;28;20049;-93
2022/12/18 04:28:51;;;;;;;2.85;2.75;;;;;;;;;;5036647;28;20049;-92
2022/12/18 04:31:18;;;;;;;2.30;2.20;;;;;;;;;;5036898;28;20111;-92
2022/12/18 04:33:44;;;;;;;2.28;2.15;;;;;;;;;;5036571;28;20049;-92
2022/12/18 04:36:12;;;;;;;3.20;3.03;;;;;;;;;;5037065;28;20095;-92
2022/12/18 04:38:38;;;;;;;2.33;2.08;;;;;;;;;;5036410;28;20392;-92
2022/12/18 04:41:06;;;;;;;3.35;3.00;;;;;;;;;;5042687;28;20045;-93
2022/12/18 04:43:33;;;;;;;2.22;2.08;;;;;;;;;;5038402;28;20053;-92
2022/12/18 04:46:03;;;;;;;4.65;2.05;;;;;;;;;;5046634;28;20080;-93
2022/12/18 04:48:30;;;;;;;2.95;2.70;;;;;;;;;;5058065;28;20059;-93
2022/12/18 04:50:56;;;;;;;1.98;1.80;;;;;;;;;;5043044;28;20108;-92
2022/12/18 04:53:23;;;;;;;2.30;2.13;;;;;;;;;;5033218;28;20073;-92
2022/12/18 04:55:49;;;;;;;3.50;3.40;;;;;;;;;;5030830;28;20053;-91
2022/12/18 04:58:17;;;;;;;3.47;3.17;;;;;;;;;;5036068;28;20100;-91
2022/12/18 05:00:44;;;;;;;4.70;4.40;;;;;;;;;;5036422;28;20045;-91
2022/12/18 05:03:10;;;;;;;2.33;2.13;;;;;;;;;;5035934;28;20499;-91
2022/12/18 05:05:37;;;;;;;3.50;3.22;;;;;;;;;;5035931;28;20041;-91
2022/12/18 05:08:04;;;;;;;2.10;2.00;;;;;;;;;;5035795;28;20042;-91
2022/12/18 05:10:30;;;;;;;2.75;2.65;;;;;;;;;;5036456;28;20072;-91
2022/12/18 05:13:00;;;;;;;2.88;2.75;;;;;;;;;;5035926;28;20049;-92
2022/12/18 05:15:29;;;;;;;1.85;1.75;;;;;;;;;;5036086;28;20045;-93
2022/12/18 05:17:56;;;;;;;3.13;2.92;;;;;;;;;;5035732;28;20108;-93
2022/12/18 05:20:23;;;;;;;3.72;2.70;;;;;;;;;;5035948;28;20119;-92
2022/12/18 05:22:49;;;;;;;1.85;1.75;;;;;;;;;;5035570;28;20461;-92
2022/12/18 05:25:16;;;;;;;1.90;1.80;;;;;;;;;;5035880;28;20091;-92
2022/12/18 05:27:42;;;;;;;3.22;2.75;;;;;;;;;;5036084;28;20046;-92
2022/12/18 05:30:10;;;;;;;1.35;1.25;;;;;;;;;;5035888;28;20472;-91
2022/12/18 05:32:38;;;;;;;1.55;1.45;;;;;;;;;;5035888;28;20375;-93
2022/12/18 05:35:05;;;;;;;3.97;2.83;;;;;;;;;;5035160;28;20075;-91
2022/12/18 05:37:31;;;;;;;6.43;2.42;;;;;;;;;;5035351;28;20045;-91
2022/12/18 05:39:58;;;;;;;2.42;2.33;;;;;;;;;;5035499;28;20049;-91
2022/12/18 05:42:24;;;;;;;1.70;1.60;;;;;;;;;;5035531;28;20415;-91
2022/12/18 05:44:51;;;;;;;3.58;3.28;;;;;;;;;;5035563;28;20046;-93
2022/12/18 05:47:17;;;;;;;2.22;2.13;;;;;;;;;;5035518;28;20056;-92
2022/12/18 05:49:45;;;;;;;3.47;2.03;;;;;;;;;;5035230;28;20052;-93
2022/12/18 05:52:12;;;;;;;2.72;2.53;;;;;;;;;;5035505;28;20383;-91
2022/12/18 05:54:38;;;;;;;2.50;2.35;;;;;;;;;;5035005;28;20045;-91
2022/12/18 05:57:05;;;;;;;3.78;3.60;;;;;;;;;;5034856;28;20052;-92
2022/12/18 05:59:31;;;;;;;2.47;2.05;;;;;;;;;;5035214;28;20057;-92
2022/12/18 06:01:58;;;;;;;2.90;2.70;;;;;;;;;;5035004;28;20054;-92
2022/12/18 06:04:24;;;;;;;1.42;1.33;;;;;;;;;;5035140;28;20391;-92
2022/12/18 06:06:52;;;;;;;1.33;1.30;;;;;;;;;;5035245;28;20103;-92
2022/12/18 06:09:19;;;;;;;2.42;2.33;;;;;;;;;;5035350;28;20106;-92
2022/12/18 06:11:45;;;;;;;2.85;2.65;;;;;;;;;;5034672;28;20050;-92
2022/12/18 06:14:12;;;;;;;1.95;1.85;;;;;;;;;;5034809;28;20111;-90
2022/12/18 06:16:38;;;;;;;2.03;1.92;;;;;;;;;;5034831;28;20045;-91
2022/12/18 06:19:05;;;;;;;3.20;2.15;;;;;;;;;;5034045;28;20045;-92
2022/12/18 06:21:33;;;;;;;2.75;2.65;;;;;;;;;;5034787;28;20046;-90
2022/12/18 06:24:01;;;;;;;2.00;1.88;;;;;;;;;;5034839;28;20084;-92
2022/12/18 06:26:27;;;;;;;2.45;2.33;;;;;;;;;;5034845;28;20053;-92
2022/12/18 06:28:54;;;;;;;2.22;2.13;;;;;;;;;;5034333;28;20107;-90
2022/12/18 06:31:20;;;;;;;2.67;2.58;;;;;;;;;;5034656;28;20053;-91
2022/12/18 06:33:47;;;;;;;1.58;1.48;;;;;;;;;;5034307;28;20453;-91
2022/12/18 06:36:14;;;;;;;3.40;2.83;;;;;;;;;;5034370;28;20079;-89
2022/12/18 06:38:42;;;;;;;2.42;2.25;;;;;;;;;;5034228;28;20061;-92
2022/12/18 06:41:11;;;;;;;2.92;2.80;;;;;;;;;;5034405;28;20053;-91
2022/12/18 06:43:37;;;;;;;1.80;1.73;;;;;;;;;;5034351;28;20388;-91
2022/12/18 06:46:05;;;;;;;3.10;3.00;;;;;;;;;;5028336;28;20046;-91
2022/12/18 06:48:31;;;;;;;2.22;2.13;;;;;;;;;;5014242;28;20053;-91
2022/12/18 06:50:58;;;;;;;3.38;3.22;;;;;;;;;;5014197;28;20100;-91
2022/12/18 06:53:24;;;;;;;3.13;2.83;;;;;;;;;;5014236;28;20099;-91
2022/12/18 06:55:51;;;;;;;3.53;3.40;;;;;;;;;;5014238;28;20100;-91
2022/12/18 06:58:19;;;;;;;4.05;3.78;;;;;;;;;;5014245;28;20054;-92
2022/12/18 07:00:45;;;;;;;1.85;1.75;;;;;;;;;;5014296;28;20127;-91
2022/12/18 07:03:12;;;;;;;1.75;1.65;;;;;;;;;;5013853;28;20451;-91
2022/12/18 07:05:40;;;;;;;2.47;2.38;;;;;;;;;;5013882;28;20104;-91
2022/12/18 07:08:07;;;;;;;2.53;2.42;;;;;;;;;;5013936;28;20096;-91
2022/12/18 07:10:33;;;;;;;2.42;2.33;;;;;;;;;;5013948;28;20057;-92
2022/12/18 07:13:00;;;;;;;3.25;3.15;;;;;;;;;;5028344;28;20107;-91
2022/12/18 07:15:28;;;;;;;2.60;2.42;;;;;;;;;;5033383;28;20049;-91
2022/12/18 07:17:54;;;;;;;2.08;1.98;;;;;;;;;;5033730;28;20053;-91
2022/12/18 07:20:21;;;;;;;2.45;2.35;;;;;;;;;;5033441;28;20099;-90
2022/12/18 07:22:47;;;;;;;1.73;1.63;;;;;;;;;;5033595;28;20061;-91
2022/12/18 07:25:14;;;;;;;2.17;2.08;;;;;;;;;;5033761;28;20099;-91
2022/12/18 07:27:40;;;;;;;2.50;2.40;;;;;;;;;;5033325;28;20167;-91
2022/12/18 07:30:07;;;;;;;2.17;2.08;;;;;;;;;;5033602;28;20103;-92
2022/12/18 07:32:35;;;;;;;5.43;5.22;;;;;;;;;;5046539;28;20049;-91
2022/12/18 07:35:02;;;;;;;1.60;1.45;;;;;;;;;;5053328;28;20102;-91
2022/12/18 07:37:28;;;;;;;1.73;1.63;;;;;;;;;;5052925;28;20461;-91
2022/12/18 07:39:55;;;;;;;2.67;2.47;;;;;;;;;;5053604;28;20379;-92
2022/12/18 07:42:34;;;;;;;1.33;1.30;;;;;;;;;;5052996;28;20103;-91
2022/12/18 07:45:01;;;;;;;1.65;1.55;;;;;;;;;;5053061;28;20461;-91
2022/12/18 07:47:28;;;;;;;1.80;1.70;;;;;;;;;;5053358;28;20143;-91
2022/12/18 07:49:56;;;;;;;3.17;2.97;;;;;;;;;;5036887;28;20045;-92
2022/12/18 07:52:22;;;;;;;2.53;2.33;;;;;;;;;;5033781;28;20510;-91
2022/12/18 07:54:49;;;;;;;3.90;3.78;;;;;;;;;;5032932;28;20041;-93
2022/12/18 07:57:16;;;;;;;2.50;2.40;;;;;;;;;;5032767;28;20053;-91
2022/12/18 07:59:43;;;;;;;2.05;1.95;;;;;;;;;;5032757;28;20411;-90
2022/12/18 08:02:09;;;;;;;2.03;1.92;;;;;;;;;;5032991;28;20099;-91
2022/12/18 08:04:36;;;;;;;2.83;2.72;;;;;;;;;;5032918;28;20053;-91
2022/12/18 08:07:04;;;;;;;1.80;1.65;;;;;;;;;;5033053;28;20056;-91
2022/12/18 08:09:30;;;;;;;2.15;2.05;;;;;;;;;;5032517;28;20049;-91
2022/12/18 08:11:57;;;;;;;3.28;3.13;;;;;;;;;;5032777;28;20045;-90
2022/12/18 08:14:23;;;;;;;2.75;2.65;;;;;;;;;;5032886;28;20115;-90
2022/12/18 08:16:50;;;;;;;3.15;2.95;;;;;;;;;;5032456;28;20045;-90
2022/12/18 08:19:16;;;;;;;2.60;2.50;;;;;;;;;;5032704;28;20049;-90
2022/12/18 08:21:43;;;;;;;2.80;2.60;;;;;;;;;;5019729;28;20049;-89
2022/12/18 08:24:11;;;;;;;9.35;3.78;;;;;;;;;;5013797;28;20053;-91
2022/12/18 08:26:38;;;;;;;2.17;2.08;;;;;;;;;;5036993;28;20084;-91
2022/12/18 08:29:04;;;;;;;4.38;3.47;;;;;;;;;;5052463;28;20514;-91
2022/12/18 08:31:32;;;;;;;4.22;3.90;;;;;;;;;;5052842;28;20053;-91
2022/12/18 08:33:59;;;;;;;4.03;3.70;;;;;;;;;;5052231;28;20049;-91
2022/12/18 08:36:26;;;;;;;3.75;3.55;;;;;;;;;;5035193;28;20463;-91
2022/12/18 08:38:52;;;;;;;3.92;3.58;;;;;;;;;;5032124;28;20145;-91
2022/12/18 08:41:21;;;;;;;3.75;3.55;;;;;;;;;;5032405;28;20049;-91
2022/12/18 08:46:36;;;;;;;1.67;1.58;;;;;;;;;;5056219;28;20064;-91
2022/12/18 08:49:02;;;;;;;2.67;2.47;;;;;;;;;;5056128;28;20118;-90
2022/12/18 08:51:29;;;;;;;2.80;1.92;;;;;;;;;;5056075;28;20056;-91
2022/12/18 08:53:55;;;;;;;2.20;2.08;;;;;;;;;;5053417;28;20107;-90
2022/12/18 08:56:23;;;;;;;3.30;3.10;;;;;;;;;;5055882;28;20392;-92
2022/12/18 08:58:52;;;;;;;4.15;3.95;;;;;;;;;;5050396;28;20107;-91
2022/12/18 09:01:18;;;;;;;2.35;2.22;;;;;;;;;;5036303;28;20046;-91
2022/12/18 09:03:45;;;;;;;1.85;1.75;;;;;;;;;;5036233;28;20056;-91
2022/12/18 09:06:14;;;;;;;1.33;1.23;;;;;;;;;;5035934;28;20457;-91
2022/12/18 09:08:40;;;;;;;6.88;3.05;;;;;;;;;;5035926;28;20050;-91
2022/12/18 09:11:12;;;;;;;1.83;1.75;;;;;;;;;;5035916;28;20132;-91
2022/12/18 09:13:40;;;;;;;2.65;2.42;;;;;;;;;;5037176;28;20128;-89
2022/12/18 09:16:07;;;;;;;2.50;2.40;;;;;;;;;;5036282;28;20491;-90
2022/12/18 09:18:34;;;;;;;1.63;1.40;;;;;;;;;;5036302;28;20046;-91
2022/12/18 09:21:00;;;;;;;3.20;3.00;;;;;;;;;;5035919;28;20050;-90
2022/12/18 09:23:27;;;;;;;2.70;2.55;;;;;;;;;;5035560;28;20057;-89
2022/12/18 09:25:59;;;;;;;2.58;2.38;;;;;;;;;;5035825;28;20049;-91
2022/12/18 09:28:25;;;;;;;2.95;2.55;;;;;;;;;;5035222;28;20053;-90
2022/12/18 09:30:53;;;;;;;1.60;1.58;;;;;;;;;;5035591;28;20053;-91
2022/12/18 09:33:20;;;;;;;4.05;3.85;;;;;;;;;;5035259;28;20045;-90
2022/12/18 09:35:47;;;;;;;3.17;2.83;;;;;;;;;;5035546;28;20407;-91
2022/12/18 09:38:14;;;;;;;3.03;2.85;;;;;;;;;;5036527;28;20107;-91
2022/12/18 09:40:42;;;;;;;2.30;2.20;;;;;;;;;;5034940;28;20095;-92
2022/12/18 09:43:14;;;;;;;4.90;2.63;;;;;;;;;;5035694;28;20049;-91
2022/12/18 09:45:43;;;;;;;2.40;2.30;;;;;;;;;;5035560;28;20046;-89
2022/12/18 09:48:15;;;;;;;2.67;2.35;;;;;;;;;;5034694;28;20446;-89
2022/12/18 09:50:41;;;;;;;2.42;2.33;;;;;;;;;;5034619;28;20072;-89
2022/12/18 09:53:14;;;;;;;6.93;6.32;;;;;;;;;;5035862;28;20104;-90
2022/12/18 09:55:42;;;;;;;3.03;1.85;;;;;;;;;;5034057;28;20103;-89
2022/12/18 09:58:15;;;;;;;2.80;2.70;;;;;;;;;;5035169;28;20053;-90
2022/12/18 10:00:42;;;;;;;3.35;3.15;;;;;;;;;;5035359;28;20070;-91
2022/12/18 10:03:10;;;;;;;2.80;2.60;;;;;;;;;;5035117;28;20049;-91
2022/12/18 10:05:41;;;;;;;2.35;2.25;;;;;;;;;;5035049;28;20107;-91
2022/12/18 10:08:07;;;;;;;;;;;;;;;;;;5035475;28;20132;-91
2022/12/18 10:10:38;;;;;;;3.65;2.42;;;;;;;;;;5037032;28;19921;-90
2022/12/18 10:13:10;;;;;;;1.08;1.05;;;;;;;;;;5021847;28;20498;-92
2022/12/18 10:15:40;;;;;;;1.80;1.70;;;;;;;;;;5015843;28;20462;-92
2022/12/18 10:18:18;;;;;;;5.20;4.65;;;;;;;;;;5015782;28;20085;-91
2022/12/18 10:20:48;;;;;;;2.22;2.03;;;;;;;;;;5015483;28;20050;-91
2022/12/18 10:23:19;;;;;;;3.63;3.42;;;;;;;;;;5029674;28;20092;-91
2022/12/18 10:25:50;;;;;;;3.45;3.17;;;;;;;;;;5034756;28;20127;-91
2022/12/18 10:28:18;;;;;;;3.20;3.00;;;;;;;;;;5034836;28;20119;-91
2022/12/18 10:30:44;;;;;;;2.15;2.05;;;;;;;;;;5034675;28;20461;-91
2022/12/18 10:33:12;;;;;;;2.70;2.58;;;;;;;;;;5034968;28;20053;-91
2022/12/18 10:35:41;;;;;;;2.90;2.70;;;;;;;;;;5033978;28;20059;-92
2022/12/18 10:38:21;;;;;;;4.53;4.30;;;;;;;;;;5034500;28;20049;-91
2022/12/18 10:40:52;;;;;;;2.33;2.17;;;;;;;;;;5034522;28;20084;-91
2022/12/18 10:43:21;;;;;;;3.13;2.78;;;;;;;;;;5035286;28;20408;-90
2022/12/18 10:45:58;;;;;;;3.35;2.67;;;;;;;;;;5034360;28;20088;-91
2022/12/18 10:48:25;;;;;;;4.05;3.88;;;;;;;;;;5035494;28;20049;-90
2022/12/18 10:50:52;;;;;;;4.60;3.95;;;;;;;;;;5039239;28;20103;-92
2022/12/18 10:53:22;;;;;;;5.80;5.30;;;;;;;;;;5035370;28;20081;-90
2022/12/18 10:55:49;;;;;;;3.33;3.13;;;;;;;;;;5036567;28;20084;-90
2022/12/18 10:58:23;;;;;;;3.05;2.78;;;;;;;;;;5036337;28;20450;-89
2022/12/18 11:01:02;;;;;;;3.30;3.13;;;;;;;;;;5037265;28;20375;-90
2022/12/18 11:03:31;;;;;;;3.00;2.80;;;;;;;;;;5034640;28;20071;-89
2022/12/18 11:06:05;;;;;;;3.78;3.58;;;;;;;;;;5034193;28;20081;-89
2022/12/18 11:08:33;;;;;;;3.10;2.97;;;;;;;;;;5034862;28;20107;-90
2022/12/18 11:10:59;;;;;;;5.70;5.28;;;;;;;;;;5033782;28;20045;-90
2022/12/18 11:13:27;;;;;;;2.60;2.47;;;;;;;;;;5033935;28;20056;-91
2022/12/18 11:15:54;;;;;;;2.95;2.75;;;;;;;;;;5034009;28;20049;-91
2022/12/18 11:18:23;;;;;;;2.47;2.35;;;;;;;;;;5021943;28;20046;-91
2022/12/18 11:20:53;;;;;;;5.28;4.97;;;;;;;;;;5015898;28;20050;-90
2022/12/18 11:23:22;;;;;;;5.10;4.80;;;;;;;;;;5027420;28;20050;-92
2022/12/18 11:25:53;;;;;;;4.38;4.18;;;;;;;;;;5030033;28;20057;-91
2022/12/18 11:28:27;;;;;;;3.42;3.22;;;;;;;;;;5040430;28;20048;-92
2022/12/18 11:31:09;;;;;;;3.20;2.97;;;;;;;;;;5036033;28;20045;-91
2022/12/18 11:33:36;;;;;;;4.43;2.97;;;;;;;;;;5034722;28;20108;-93
2022/12/18 11:36:04;;;;;;;3.67;3.47;;;;;;;;;;5046000;28;20102;-89
2022/12/18 11:38:33;;;;;;;4.03;3.67;;;;;;;;;;5053036;28;20049;-89
2022/12/18 11:41:03;;;;;;;2.53;2.33;;;;;;;;;;5053258;28;20057;-89
2022/12/18 11:43:31;;;;;;;3.50;3.30;;;;;;;;;;5053448;28;20099;-89
2022/12/18 11:46:01;;;;;;;7.00;4.35;;;;;;;;;;5053014;28;20048;-89
2022/12/18 11:48:30;;;;;;;5.85;5.50;;;;;;;;;;5053258;28;20052;-90
2022/12/18 11:50:58;;;;;;;3.88;3.65;;;;;;;;;;5052717;28;20136;-89
2022/12/18 11:53:25;;;;;;;3.35;3.15;;;;;;;;;;5052974;28;20110;-89
2022/12/18 11:56:04;;;;;;;4.00;2.63;;;;;;;;;;5052932;28;20102;-89
2022/12/18 11:58:39;;;;;;;6.72;5.18;;;;;;;;;;5055070;28;20045;-89
2022/12/18 12:01:14;;;;;;;3.67;3.40;;;;;;;;;;5057029;28;20060;-90
2022/12/18 12:03:54;;;;;;;3.20;3.00;;;;;;;;;;5047423;28;20104;-89
2022/12/18 12:06:23;;;;;;;2.05;1.95;;;;;;;;;;5027997;28;20107;-89
2022/12/18 12:08:55;;;;;;;8.23;4.38;;;;;;;;;;5036373;28;20100;-89
2022/12/18 12:11:24;;;;;;;5.22;4.93;;;;;;;;;;5027251;28;20054;-89
2022/12/18 12:14:04;;;;;;;3.35;3.15;;;;;;;;;;5026673;28;20049;-90
2022/12/18 12:16:33;;;;;;;3.28;2.97;;;;;;;;;;5032762;28;20491;-89
2022/12/18 12:19:08;;;;;;;4.75;2.17;;;;;;;;;;5036644;28;20057;-89
2022/12/18 12:21:37;;;;;;;3.30;3.10;;;;;;;;;;5043287;28;20049;-89
2022/12/18 12:24:10;;;;;;;5.45;5.05;;;;;;;;;;5056724;28;20099;-89
2022/12/18 12:26:43;;;;;;;3.00;2.80;;;;;;;;;;5056280;28;20560;-89
2022/12/18 12:29:25;;;;;;;3.63;3.28;;;;;;;;;;5046811;28;20049;-90
2022/12/18 12:31:57;;;;;;;5.22;4.82;;;;;;;;;;5036530;28;20053;-89
2022/12/18 12:34:26;;;;;;;3.92;3.63;;;;;;;;;;5037051;28;20392;-89
2022/12/18 12:37:05;;;;;;;5.25;4.95;;;;;;;;;;5036280;28;20045;-88
2022/12/18 12:39:34;;;;;;;3.47;3.25;;;;;;;;;;5036169;28;20116;-88
2022/12/18 12:44:49;;;;;;;2.97;2.78;;;;;;;;;;5035748;28;20434;-88
2022/12/18 12:47:16;;;;;;;2.78;2.63;;;;;;;;;;5036048;28;20103;-88
2022/12/18 12:49:47;;;;;;;7.88;7.28;;;;;;;;;;5035869;28;20115;-89
2022/12/18 12:52:16;;;;;;;3.83;3.53;;;;;;;;;;5035535;28;20460;-88
2022/12/18 12:54:42;;;;;;;1.55;1.45;;;;;;;;;;5035609;28;20572;-89
2022/12/18 12:57:12;;;;;;;3.42;3.13;;;;;;;;;;5051470;28;20041;-89
2022/12/18 12:59:47;;;;;;;2.63;2.42;;;;;;;;;;5046793;28;20914;-89
2022/12/18 13:02:19;;;;;;;3.95;3.58;;;;;;;;;;5035857;28;20107;-89
2022/12/18 13:04:48;;;;;;;5.45;5.03;;;;;;;;;;5035440;28;20510;-89
2022/12/18 13:07:16;;;;;;;2.72;2.50;;;;;;;;;;5035632;28;20131;-90
2022/12/18 13:09:57;;;;;;;4.10;3.67;;;;;;;;;;5035273;28;20495;-89
2022/12/18 13:15:13;;;;;;;5.40;2.45;;;;;;;;;;5035302;28;20060;-88
2022/12/18 13:17:41;;;;;;;3.70;2.85;;;;;;;;;;5035257;28;20051;-89
2022/12/18 13:20:09;;;;;;;3.65;3.25;;;;;;;;;;5035385;28;20057;-89
2022/12/18 13:22:36;;;;;;;6.10;5.55;;;;;;;;;;5035286;28;20053;-88
2022/12/18 13:25:03;;;;;;;2.67;2.50;;;;;;;;;;5035379;28;20485;-88
2022/12/18 13:27:55;;;;;;;4.85;4.45;;;;;;;;;;5041958;28;20041;-89
2022/12/18 13:30:51;;;;;;;4.15;3.85;;;;;;;;;;5018818;28;20053;-89
2022/12/18 13:33:48;;;;;;;6.15;2.70;;;;;;;;;;4951314;29;20110;-88
2022/12/18 13:36:32;;;;;;;3.83;3.42;;;;;;;;;;4956654;28;20116;-89
2022/12/18 13:39:12;;;;;;;2.30;2.20;;;;;;;;;;4972936;28;20488;-88
2022/12/18 13:41:38;;;;;;;2.85;2.65;;;;;;;;;;4973001;28;20055;-89
2022/12/18 13:44:13;;;;;;;5.43;3.03;;;;;;;;;;4973105;28;20061;-89
2022/12/18 13:46:43;;;;;;;2.88;2.70;;;;;;;;;;4974017;28;20050;-91
2022/12/18 13:49:21;;;;;;;2.90;2.70;;;;;;;;;;4974057;28;20043;-89
2022/12/18 13:51:48;;;;;;;2.38;2.22;;;;;;;;;;4974949;28;20511;-89
2022/12/18 13:54:19;;;;;;;3.90;3.65;;;;;;;;;;4973627;28;20042;-88
2022/12/18 13:56:47;;;;;;;3.63;3.38;;;;;;;;;;4972671;28;20481;-87
2022/12/18 13:59:17;;;;;;;4.38;4.07;;;;;;;;;;4972461;28;20047;-89
2022/12/18 14:01:44;;;;;;;2.60;2.40;;;;;;;;;;4972746;28;20083;-89
2022/12/18 14:04:11;;;;;;;3.70;3.40;;;;;;;;;;4972798;28;20090;-88
2022/12/18 14:06:38;;;;;;;2.58;2.47;;;;;;;;;;4982663;28;20049;-89
2022/12/18 14:09:05;;;;;;;2.50;2.40;;;;;;;;;;5034529;28;20115;-89
2022/12/18 14:11:31;;;;;;;2.55;2.40;;;;;;;;;;5034625;28;20053;-88
2022/12/18 14:13:58;;;;;;;2.33;2.22;;;;;;;;;;5035444;28;20577;-89
2022/12/18 14:16:26;;;;;;;3.28;2.83;;;;;;;;;;5033667;28;20046;-88
2022/12/18 14:18:54;;;;;;;4.72;4.47;;;;;;;;;;5033714;28;20056;-88
2022/12/18 14:21:22;;;;;;;3.03;2.83;;;;;;;;;;5025982;28;20081;-88
2022/12/18 14:23:49;;;;;;;2.40;2.25;;;;;;;;;;5013074;28;20049;-89
2022/12/18 14:26:22;;;;;;;4.47;4.30;;;;;;;;;;5013742;28;20050;-89
2022/12/18 14:28:49;;;;;;;4.03;3.78;;;;;;;;;;5013153;28;20099;-89
2022/12/18 14:31:18;;;;;;;3.03;2.90;;;;;;;;;;5028490;28;20045;-87
2022/12/18 14:33:46;;;;;;;3.33;2.85;;;;;;;;;;5016366;28;20447;-89
2022/12/18 14:36:15;;;;;;;5.20;4.55;;;;;;;;;;5014163;28;20101;-89
2022/12/18 14:38:42;;;;;;;4.53;4.32;;;;;;;;;;5013576;28;20049;-89
2022/12/18 14:41:11;;;;;;;3.53;2.40;;;;;;;;;;5022943;28;20457;-89
2022/12/18 14:43:38;;;;;;;1.90;1.80;;;;;;;;;;5029821;28;20084;-89
2022/12/18 14:46:06;;;;;;;4.28;3.88;;;;;;;;;;5013763;28;20061;-89
2022/12/18 14:48:35;;;;;;;3.40;3.10;;;;;;;;;;5014473;28;20173;-90
2022/12/18 14:51:04;;;;;;;5.15;4.85;;;;;;;;;;5014052;28;20100;-89
2022/12/18 14:53:36;;;;;;;6.93;6.30;;;;;;;;;;5031928;28;20065;-89
2022/12/18 14:56:03;;;;;;;6.22;5.82;;;;;;;;;;5032845;28;20099;-89
2022/12/18 14:58:30;;;;;;;2.97;2.83;;;;;;;;;;5028688;28;20049;-90
2022/12/18 15:00:56;;;;;;;6.32;6.03;;;;;;;;;;5033530;28;20103;-88